createdAt,value
2022-12-27T00:01:26.974Z,2.45
2022-12-27T00:03:30.583Z,4.97
2022-12-27T00:05:34.172Z,5.63
2022-12-27T00:07:39.342Z,11.98
2022-12-27T00:09:42.981Z,13.90
2022-12-27T00:11:46.635Z,13.68
2022-12-27T00:13:50.656Z,12.63
2022-12-27T00:15:54.235Z,6.95
2022-12-27T00:17:57.881Z,3.90
2022-12-27T00:20:08.313Z,3.45
2022-12-27T00:22:14.555Z,3.58
2022-12-27T00:24:19.560Z,3.03
2022-12-27T00:26:24.358Z,3.90
2022-12-27T00:28:28.386Z,4.10
2022-12-27T00:30:32.446Z,4.28
2022-12-27T00:32:36.494Z,3.97
2022-12-27T00:34:40.123Z,4.22
2022-12-27T00:36:43.624Z,4.63
2022-12-27T00:38:47.910Z,4.72
2022-12-27T00:40:53.018Z,12.30
2022-12-27T00:42:56.707Z,7.38
2022-12-27T00:45:00.416Z,10.35
2022-12-27T00:47:03.963Z,20.55
2022-12-27T00:49:07.539Z,12.63
2022-12-27T00:51:13.400Z,8.60
2022-12-27T00:53:17.372Z,5.53
2022-12-27T00:55:21.064Z,6.75
2022-12-27T00:57:26.078Z,6.05
2022-12-27T00:59:29.608Z,9.65
2022-12-27T01:01:34.487Z,10.43
2022-12-27T01:03:38.267Z,12.82
2022-12-27T01:05:41.824Z,10.98
2022-12-27T01:07:45.619Z,2.72
2022-12-27T01:09:49.221Z,2.70
2022-12-27T01:11:52.794Z,5.38
2022-12-27T01:13:59.198Z,4.20
2022-12-27T01:16:03.022Z,3.38
2022-12-27T01:18:06.510Z,6.68
2022-12-27T01:20:10.803Z,9.10
2022-12-27T01:22:14.307Z,13.15
2022-12-27T01:24:17.967Z,14.60
2022-12-27T01:26:22.835Z,8.88
2022-12-27T01:28:26.484Z,8.75
2022-12-27T01:30:31.595Z,6.65
2022-12-27T01:32:35.262Z,5.00
2022-12-27T01:34:38.726Z,4.85
2022-12-27T01:36:42.429Z,3.60
2022-12-27T01:38:48.108Z,3.35
2022-12-27T01:40:51.797Z,3.30
2022-12-27T01:42:55.643Z,3.33
2022-12-27T01:44:59.663Z,3.28
2022-12-27T01:47:05.165Z,3.30
2022-12-27T01:49:10.288Z,3.45
2022-12-27T01:51:14.103Z,3.13
2022-12-27T01:53:19.735Z,2.50
2022-12-27T01:55:25.341Z,2.30
2022-12-27T01:57:29.315Z,2.78
2022-12-27T01:59:33.286Z,4.30
2022-12-27T02:01:38.204Z,4.72
2022-12-27T02:03:45.143Z,4.70
2022-12-27T02:05:48.681Z,3.80
2022-12-27T02:07:57.257Z,4.22
2022-12-27T02:10:01.412Z,5.43
2022-12-27T02:12:07.164Z,3.88
2022-12-27T02:14:11.291Z,4.60
2022-12-27T02:16:16.201Z,3.97
2022-12-27T02:18:19.858Z,4.18
2022-12-27T02:20:27.252Z,6.45
2022-12-27T02:23:12.507Z,6.78
2022-12-27T02:25:25.909Z,9.07
2022-12-27T02:27:40.692Z,7.68
2022-12-27T02:29:52.787Z,10.50
2022-12-27T02:32:01.334Z,10.98
2022-12-27T02:34:07.094Z,9.40
2022-12-27T02:36:12.494Z,9.75
2022-12-27T02:38:17.719Z,12.80
2022-12-27T02:40:41.622Z,16.88
2022-12-27T02:43:02.833Z,12.75
2022-12-27T02:45:29.134Z,8.25
2022-12-27T02:47:52.645Z,8.20
2022-12-27T02:50:13.700Z,6.82
2022-12-27T02:52:37.280Z,6.10
2022-12-27T02:54:47.981Z,6.63
2022-12-27T02:57:09.451Z,7.47
2022-12-27T02:59:21.136Z,7.70
2022-12-27T03:01:46.056Z,6.30
2022-12-27T03:03:58.521Z,6.38
2022-12-27T03:06:34.858Z,4.50
2022-12-27T03:08:42.887Z,5.90
2022-12-27T03:11:06.761Z,5.32
2022-12-27T03:13:35.782Z,4.50
2022-12-27T03:15:57.229Z,3.58
2022-12-27T03:18:04.780Z,3.58
2022-12-27T03:20:28.087Z,2.83
2022-12-27T03:22:50.281Z,3.03
2022-12-27T03:25:12.890Z,2.38
2022-12-27T03:27:19.123Z,2.92
2022-12-27T03:29:40.986Z,2.47
2022-12-27T03:32:04.505Z,3.00
2022-12-27T03:34:22.797Z,2.05
2022-12-27T03:36:46.039Z,3.05
2022-12-27T03:38:51.501Z,3.20
2022-12-27T03:41:17.015Z,3.13
2022-12-27T03:43:20.692Z,3.10
2022-12-27T03:45:44.758Z,3.45
2022-12-27T03:47:49.645Z,3.53
2022-12-27T03:49:55.359Z,2.25
2022-12-27T03:52:03.940Z,3.03
2022-12-27T03:54:08.909Z,2.95
2022-12-27T03:56:12.909Z,3.08
2022-12-27T03:58:16.536Z,2.97
2022-12-27T04:00:20.281Z,2.70
2022-12-27T04:02:24.064Z,3.00
2022-12-27T04:04:27.716Z,2.83
2022-12-27T04:06:31.416Z,2.38
2022-12-27T04:08:53.950Z,2.30
2022-12-27T04:11:14.924Z,2.38
2022-12-27T04:13:36.241Z,2.38
2022-12-27T04:15:57.277Z,3.53
2022-12-27T04:18:18.732Z,2.25
2022-12-27T04:20:42.559Z,2.00
2022-12-27T04:23:03.834Z,2.20
2022-12-27T04:25:27.896Z,2.67
2022-12-27T04:27:48.777Z,2.88
2022-12-27T04:30:10.088Z,2.85
2022-12-27T04:32:31.269Z,2.65
2022-12-27T04:34:44.758Z,3.25
2022-12-27T04:36:48.480Z,2.90
2022-12-27T04:38:52.261Z,2.30
2022-12-27T04:41:14.635Z,2.55
2022-12-27T04:43:35.995Z,3.03
2022-12-27T04:45:53.472Z,2.28
2022-12-27T04:48:14.460Z,3.10
2022-12-27T04:50:40.873Z,2.00
2022-12-27T04:53:01.973Z,2.50
2022-12-27T04:55:13.222Z,2.30
2022-12-27T04:57:18.331Z,2.50
2022-12-27T04:59:39.531Z,2.92
2022-12-27T05:02:00.982Z,2.40
2022-12-27T05:04:04.651Z,2.72
2022-12-27T05:06:08.471Z,2.45
2022-12-27T05:08:29.820Z,2.17
2022-12-27T05:10:51.176Z,2.38
2022-12-27T05:13:13.981Z,1.60
2022-12-27T05:15:17.592Z,1.55
2022-12-27T05:17:21.079Z,1.15
2022-12-27T05:19:24.679Z,1.27
2022-12-27T05:21:28.699Z,1.60
2022-12-27T05:23:49.881Z,1.40
2022-12-27T05:25:52.589Z,1.60
2022-12-27T05:27:57.427Z,1.20
2022-12-27T05:30:00.908Z,0.90
2022-12-27T05:32:08.072Z,0.95
2022-12-27T05:34:16.294Z,1.00
2022-12-27T05:36:19.935Z,1.52
2022-12-27T05:38:23.580Z,1.55
2022-12-27T05:40:27.300Z,1.52
2022-12-27T05:42:30.984Z,1.45
2022-12-27T05:44:36.007Z,1.00
2022-12-27T05:46:39.722Z,1.35
2022-12-27T05:48:43.437Z,1.05
2022-12-27T05:50:47.061Z,1.15
2022-12-27T05:52:50.585Z,0.93
2022-12-27T05:54:54.096Z,1.35
2022-12-27T05:56:57.605Z,1.55
2022-12-27T05:59:01.510Z,1.00
2022-12-27T06:01:10.000Z,1.15
2022-12-27T06:03:13.707Z,1.40
2022-12-27T06:05:17.348Z,1.10
2022-12-27T06:07:20.990Z,1.30
2022-12-27T06:09:24.818Z,1.02
2022-12-27T06:11:28.395Z,1.05
2022-12-27T06:13:32.224Z,0.98
2022-12-27T06:15:35.947Z,1.15
2022-12-27T06:17:41.002Z,0.90
2022-12-27T06:19:44.644Z,1.10
2022-12-27T06:21:48.318Z,0.70
2022-12-27T06:23:52.201Z,1.27
2022-12-27T06:25:55.842Z,1.35
2022-12-27T06:27:59.422Z,0.70
2022-12-27T06:30:03.177Z,0.90
2022-12-27T06:32:06.951Z,1.40
2022-12-27T06:34:13.279Z,0.98
2022-12-27T06:36:17.939Z,1.10
2022-12-27T06:38:21.686Z,0.98
2022-12-27T06:40:25.248Z,0.90
2022-12-27T06:42:28.892Z,1.00
2022-12-27T06:44:32.596Z,1.25
2022-12-27T06:46:36.276Z,0.95
2022-12-27T06:48:39.962Z,0.85
2022-12-27T06:50:45.069Z,0.88
2022-12-27T06:52:48.728Z,1.00
2022-12-27T06:54:52.270Z,1.20
2022-12-27T06:56:56.973Z,0.90
2022-12-27T06:59:00.775Z,1.30
2022-12-27T07:01:09.096Z,0.88
2022-12-27T07:03:12.888Z,1.10
2022-12-27T07:05:16.497Z,1.13
2022-12-27T07:07:21.741Z,1.05
2022-12-27T07:09:25.285Z,1.60
2022-12-27T07:11:28.807Z,1.02
2022-12-27T07:13:35.561Z,1.20
2022-12-27T07:15:40.487Z,1.00
2022-12-27T07:17:44.081Z,1.23
2022-12-27T07:19:48.361Z,1.10
2022-12-27T07:21:51.968Z,1.33
2022-12-27T07:23:57.142Z,1.60
2022-12-27T07:26:03.619Z,1.65
2022-12-27T07:28:08.483Z,0.95
2022-12-27T07:30:12.418Z,0.80
2022-12-27T07:32:15.942Z,1.10
2022-12-27T07:34:19.558Z,0.70
2022-12-27T07:36:23.882Z,0.70
2022-12-27T07:38:27.591Z,0.70
2022-12-27T07:40:32.558Z,0.70
2022-12-27T07:42:36.151Z,0.60
2022-12-27T07:44:39.718Z,1.05
2022-12-27T07:46:43.348Z,1.20
2022-12-27T07:48:47.964Z,1.30
2022-12-27T07:50:56.739Z,1.20
2022-12-27T07:53:00.248Z,0.80
2022-12-27T07:55:04.047Z,1.25
2022-12-27T07:57:08.992Z,0.80
2022-12-27T07:59:13.896Z,0.65
2022-12-27T08:01:18.834Z,0.60
2022-12-27T08:03:22.586Z,0.75
2022-12-27T08:05:28.081Z,0.85
2022-12-27T08:07:31.884Z,0.68
2022-12-27T08:09:38.026Z,0.95
2022-12-27T08:11:41.731Z,0.77
2022-12-27T08:13:46.919Z,1.02
2022-12-27T08:15:50.461Z,0.70
2022-12-27T08:17:54.058Z,0.85
2022-12-27T08:19:57.770Z,0.50
2022-12-27T08:22:01.375Z,0.40
2022-12-27T08:24:04.958Z,0.65
2022-12-27T08:26:08.752Z,0.85
2022-12-27T08:28:14.044Z,0.70
2022-12-27T08:30:19.023Z,0.80
2022-12-27T08:32:22.623Z,0.65
2022-12-27T08:34:26.255Z,0.40
2022-12-27T08:36:54.730Z,0.67
2022-12-27T08:38:55.422Z,0.63
2022-12-27T08:40:58.973Z,0.60
2022-12-27T08:43:02.651Z,0.50
2022-12-27T08:45:06.457Z,0.80
2022-12-27T08:47:11.458Z,0.50
2022-12-27T08:49:14.984Z,0.73
2022-12-27T08:51:31.224Z,0.70
2022-12-27T08:53:36.574Z,0.80
2022-12-27T08:55:40.270Z,0.50
2022-12-27T08:57:43.867Z,0.40
2022-12-27T08:59:47.441Z,0.60
2022-12-27T09:01:51.036Z,0.57
2022-12-27T09:03:56.163Z,0.60
2022-12-27T09:06:08.776Z,0.53
2022-12-27T09:08:12.480Z,0.60
2022-12-27T09:10:16.281Z,0.50
2022-12-27T09:12:19.855Z,0.60
2022-12-27T09:14:23.351Z,0.63
2022-12-27T09:16:28.086Z,0.50
2022-12-27T09:18:31.619Z,0.53
2022-12-27T09:20:36.498Z,0.80
2022-12-27T09:22:40.255Z,0.53
2022-12-27T09:24:43.839Z,0.63
2022-12-27T09:26:47.456Z,1.20
2022-12-27T09:28:51.658Z,0.63
2022-12-27T09:30:55.420Z,0.57
2022-12-27T09:33:00.101Z,0.60
2022-12-27T09:35:04.019Z,0.50
2022-12-27T09:37:09.015Z,0.60
2022-12-27T09:39:14.012Z,0.40
2022-12-27T09:42:11.826Z,0.40
2022-12-27T09:43:46.101Z,0.50
2022-12-27T09:45:51.998Z,0.40
2022-12-27T09:47:57.999Z,0.30
2022-12-27T09:50:04.668Z,0.30
2022-12-27T09:52:14.482Z,0.67
2022-12-27T09:54:21.760Z,0.60
2022-12-27T09:56:40.826Z,0.50
2022-12-27T09:58:52.667Z,0.40
2022-12-27T10:00:56.266Z,0.40
2022-12-27T10:03:00.213Z,0.40
2022-12-27T10:05:21.563Z,0.40
2022-12-27T10:07:32.041Z,0.40
2022-12-27T10:09:52.081Z,0.40
2022-12-27T10:12:00.815Z,0.30
2022-12-27T10:14:07.947Z,0.30
2022-12-27T10:16:20.052Z,0.30
2022-12-27T10:18:31.337Z,0.50
2022-12-27T10:20:40.159Z,0.40
2022-12-27T10:22:48.087Z,0.40
2022-12-27T10:24:53.087Z,0.40
2022-12-27T10:27:00.033Z,0.40
2022-12-27T10:29:05.536Z,0.40
2022-12-27T10:31:14.091Z,0.47
2022-12-27T10:33:21.559Z,0.50
2022-12-27T10:35:26.241Z,0.60
2022-12-27T10:37:30.081Z,0.57
2022-12-27T10:39:37.208Z,0.43
2022-12-27T10:41:43.643Z,0.50
2022-12-27T10:43:49.423Z,0.90
2022-12-27T10:45:53.075Z,0.40
2022-12-27T10:47:58.111Z,0.40
2022-12-27T10:50:11.312Z,0.40
2022-12-27T10:52:19.410Z,0.40
2022-12-27T10:54:24.689Z,0.40
2022-12-27T10:56:30.187Z,0.50
2022-12-27T10:58:39.345Z,0.50
2022-12-27T11:00:54.344Z,0.50
2022-12-27T11:02:58.581Z,0.40
2022-12-27T11:05:02.903Z,0.50
2022-12-27T11:07:18.431Z,0.67
2022-12-27T11:09:26.763Z,0.67
2022-12-27T11:11:31.752Z,0.40
2022-12-27T11:13:35.239Z,0.40
2022-12-27T11:15:40.478Z,0.40
2022-12-27T11:17:45.688Z,0.50
2022-12-27T11:19:49.613Z,0.40
2022-12-27T11:21:54.262Z,0.63
2022-12-27T11:23:59.225Z,0.67
2022-12-27T11:26:04.338Z,0.97
2022-12-27T11:28:19.878Z,0.90
2022-12-27T11:30:25.052Z,1.40
2022-12-27T11:32:28.971Z,1.00
2022-12-27T11:34:34.659Z,0.80
2022-12-27T11:36:40.836Z,0.60
2022-12-27T11:38:48.083Z,0.70
2022-12-27T11:40:56.768Z,0.50
2022-12-27T11:43:03.257Z,0.57
2022-12-27T11:45:13.516Z,0.70
2022-12-27T11:47:23.871Z,0.53
2022-12-27T11:49:30.044Z,0.40
2022-12-27T11:51:48.611Z,0.50
2022-12-27T11:54:07.200Z,0.40
2022-12-27T11:56:20.318Z,0.73
2022-12-27T11:58:32.312Z,0.53
2022-12-27T12:00:42.461Z,0.40
2022-12-27T12:02:55.510Z,0.40
2022-12-27T12:05:22.940Z,0.40
2022-12-27T12:07:33.401Z,0.60
2022-12-27T12:09:42.831Z,0.30
2022-12-27T12:11:55.104Z,0.50
2022-12-27T12:14:10.318Z,0.40
2022-12-27T12:16:42.833Z,0.40
2022-12-27T12:19:00.402Z,0.43
2022-12-27T12:21:22.584Z,0.50
2022-12-27T12:23:29.664Z,0.40
2022-12-27T12:25:48.116Z,0.50
2022-12-27T12:28:09.751Z,0.40
2022-12-27T12:30:36.378Z,0.40
2022-12-27T12:32:49.963Z,0.40
2022-12-27T12:35:03.016Z,0.40
2022-12-27T12:37:14.248Z,0.40
2022-12-27T12:39:23.223Z,0.43
2022-12-27T12:41:33.358Z,0.50
2022-12-27T12:43:47.120Z,0.60
2022-12-27T12:45:58.724Z,0.40
2022-12-27T12:48:26.078Z,0.50
2022-12-27T12:50:35.570Z,0.50
2022-12-27T12:52:56.028Z,0.40
2022-12-27T12:55:05.336Z,0.50
2022-12-27T12:57:14.073Z,0.60
2022-12-27T12:59:27.033Z,0.70
2022-12-27T13:01:35.347Z,1.47
2022-12-27T13:03:55.130Z,0.63
2022-12-27T13:06:06.314Z,0.50
2022-12-27T13:08:15.103Z,0.53
2022-12-27T13:10:42.880Z,0.50
2022-12-27T13:12:53.057Z,0.40
2022-12-27T13:15:15.503Z,0.70
2022-12-27T13:17:21.859Z,0.50
2022-12-27T13:19:37.057Z,0.40
2022-12-27T13:21:49.436Z,0.40
2022-12-27T13:23:58.417Z,0.43
2022-12-27T13:26:06.688Z,0.50
2022-12-27T13:28:22.548Z,0.67
2022-12-27T13:30:29.728Z,0.50
2022-12-27T13:32:38.000Z,0.43
2022-12-27T13:34:46.107Z,0.50
2022-12-27T13:36:59.289Z,0.40
2022-12-27T13:39:18.112Z,0.60
2022-12-27T13:41:40.113Z,0.40
2022-12-27T13:43:58.631Z,0.40
2022-12-27T13:46:11.369Z,0.47
2022-12-27T13:48:22.819Z,0.80
2022-12-27T13:50:43.175Z,0.73
2022-12-27T13:52:59.494Z,0.90
2022-12-27T13:55:22.298Z,0.80
2022-12-27T13:57:43.786Z,0.50
2022-12-27T13:59:56.811Z,0.60
2022-12-27T14:02:22.778Z,0.60
2022-12-27T14:04:45.420Z,0.53
2022-12-27T14:06:59.182Z,0.80
2022-12-27T14:09:44.347Z,1.20
2022-12-27T14:12:07.128Z,3.10
2022-12-27T14:14:15.502Z,2.70
2022-12-27T14:16:35.432Z,1.97
2022-12-27T14:19:05.560Z,2.80
2022-12-27T14:21:25.126Z,2.00
2022-12-27T14:23:41.990Z,0.90
2022-12-27T14:26:32.833Z,3.27
2022-12-27T14:29:30.292Z,4.67
2022-12-27T14:32:07.716Z,2.87
2022-12-27T14:34:59.693Z,1.97
2022-12-27T14:37:23.346Z,2.80
2022-12-27T14:40:01.193Z,5.20
2022-12-27T14:42:52.303Z,6.80
2022-12-27T14:45:49.980Z,22.60
2022-12-27T14:48:24.495Z,12.53
2022-12-27T14:51:49.880Z,14.60
2022-12-27T14:54:18.485Z,22.60
2022-12-27T14:56:31.395Z,25.60
2022-12-27T14:59:00.393Z,30.87
2022-12-27T15:01:17.153Z,32.27
2022-12-27T15:03:41.143Z,34.23
2022-12-27T15:06:04.137Z,30.43
2022-12-27T15:08:33.927Z,23.57
2022-12-27T15:10:57.803Z,17.80
2022-12-27T15:13:07.738Z,17.97
2022-12-27T15:15:26.383Z,21.50
2022-12-27T15:17:49.098Z,16.90
2022-12-27T15:20:22.226Z,10.13
2022-12-27T15:22:37.351Z,13.52
2022-12-27T15:24:51.946Z,14.60
2022-12-27T15:27:02.628Z,13.88
2022-12-27T15:29:29.443Z,16.10
2022-12-27T15:31:38.836Z,20.67
2022-12-27T15:33:52.344Z,12.07
2022-12-27T15:36:04.424Z,6.82
2022-12-27T15:38:11.844Z,9.00
2022-12-27T15:40:29.970Z,8.90
2022-12-27T15:42:48.909Z,11.60
2022-12-27T15:44:58.400Z,14.40
2022-12-27T15:47:44.422Z,10.25
2022-12-27T15:50:16.685Z,8.80
2022-12-27T15:52:35.651Z,9.43
2022-12-27T15:54:54.003Z,8.02
2022-12-27T15:57:21.645Z,6.80
2022-12-27T15:59:46.865Z,6.05
2022-12-27T16:02:10.711Z,6.95
2022-12-27T16:04:41.290Z,8.93
2022-12-27T16:06:52.929Z,14.68
2022-12-27T16:09:23.917Z,28.23
2022-12-27T16:12:02.230Z,23.95
2022-12-27T16:14:25.288Z,24.08
2022-12-27T16:17:03.472Z,17.50
2022-12-27T16:19:38.472Z,17.95
2022-12-27T16:21:45.644Z,16.02
2022-12-27T16:23:56.012Z,15.57
2022-12-27T16:26:04.317Z,8.50
2022-12-27T16:28:11.121Z,9.70
2022-12-27T16:30:14.915Z,6.72
2022-12-27T16:32:23.605Z,4.53
2022-12-27T16:34:31.105Z,3.67
2022-12-27T16:36:37.132Z,3.78
2022-12-27T16:38:45.874Z,3.92
2022-12-27T16:40:53.448Z,5.43
2022-12-27T16:43:45.292Z,5.20
2022-12-27T16:45:58.827Z,4.82
2022-12-27T16:48:18.406Z,4.65
2022-12-27T16:50:40.966Z,4.82
2022-12-27T16:52:58.498Z,5.70
2022-12-27T16:55:22.431Z,4.30
2022-12-27T16:57:42.099Z,6.22
2022-12-27T16:59:59.095Z,5.05
2022-12-27T17:02:02.807Z,5.78
2022-12-27T17:04:06.289Z,5.25
2022-12-27T17:06:43.398Z,5.45
2022-12-27T17:08:48.072Z,5.55
2022-12-27T17:11:25.924Z,5.22
2022-12-27T17:13:36.352Z,5.93
2022-12-27T17:15:49.632Z,12.48
2022-12-27T17:17:57.265Z,9.38
2022-12-27T17:20:06.853Z,12.88
2022-12-27T17:22:16.063Z,14.60
2022-12-27T17:24:21.865Z,15.35
2022-12-27T17:26:57.903Z,9.27
2022-12-27T17:29:11.398Z,7.28
2022-12-27T17:31:27.814Z,5.22
2022-12-27T17:33:41.118Z,6.20
2022-12-27T17:36:06.385Z,7.10
2022-12-27T17:38:22.869Z,5.78
2022-12-27T17:40:33.748Z,6.20
2022-12-27T17:43:03.128Z,10.10
2022-12-27T17:45:23.134Z,6.80
2022-12-27T17:47:46.530Z,8.43
2022-12-27T17:49:50.070Z,6.78
2022-12-27T17:52:11.310Z,7.03
2022-12-27T17:54:42.553Z,6.68
2022-12-27T17:57:04.960Z,6.28
2022-12-27T17:59:11.863Z,6.70
2022-12-27T18:01:15.872Z,9.20
2022-12-27T18:03:21.286Z,8.90
2022-12-27T18:05:28.821Z,7.78
2022-12-27T18:07:35.109Z,8.93
2022-12-27T18:09:42.036Z,8.57
2022-12-27T18:11:45.467Z,10.10
2022-12-27T18:13:53.816Z,11.00
2022-12-27T18:15:58.555Z,9.02
2022-12-27T18:18:03.932Z,15.88
2022-12-27T18:20:31.332Z,13.25
2022-12-27T18:22:34.882Z,12.77
2022-12-27T18:24:42.138Z,10.52
2022-12-27T18:26:45.507Z,9.02
2022-12-27T18:28:49.208Z,7.22
2022-12-27T18:30:58.180Z,10.50
2022-12-27T18:33:03.797Z,16.08
2022-12-27T18:35:09.836Z,22.67
2022-12-27T18:37:18.877Z,22.85
2022-12-27T18:39:30.637Z,22.35
2022-12-27T18:41:38.481Z,13.10
2022-12-27T18:43:46.166Z,11.00
2022-12-27T18:45:49.620Z,9.52
2022-12-27T18:47:55.814Z,9.13
2022-12-27T18:50:01.552Z,7.50
2022-12-27T18:52:16.724Z,6.80
2022-12-27T18:54:23.998Z,6.72
2022-12-27T18:56:32.626Z,6.60
2022-12-27T18:58:36.667Z,6.95
2022-12-27T19:00:50.147Z,9.02
2022-12-27T19:02:55.812Z,7.53
2022-12-27T19:05:28.607Z,9.68
2022-12-27T19:07:35.541Z,9.52
2022-12-27T19:09:42.282Z,8.38
2022-12-27T19:11:53.038Z,8.30
2022-12-27T19:13:59.362Z,7.45
2022-12-27T19:16:02.976Z,7.40
2022-12-27T19:18:08.137Z,6.72
2022-12-27T19:20:21.414Z,7.00
2022-12-27T19:22:43.575Z,5.50
2022-12-27T19:24:47.170Z,6.32
2022-12-27T19:26:51.427Z,5.40
2022-12-27T19:29:07.311Z,5.85
2022-12-27T19:31:19.946Z,6.10
2022-12-27T19:33:27.505Z,5.40
2022-12-27T19:35:30.996Z,5.80
2022-12-27T19:37:36.095Z,5.30
2022-12-27T19:39:41.619Z,5.72
2022-12-27T19:41:45.032Z,4.95
2022-12-27T19:43:48.890Z,5.35
2022-12-27T19:45:52.414Z,4.63
2022-12-27T19:47:56.345Z,5.75
2022-12-27T19:49:59.668Z,5.45
2022-12-27T19:52:03.073Z,5.95
2022-12-27T19:54:13.583Z,5.60
2022-12-27T19:56:16.907Z,5.40
2022-12-27T19:58:23.265Z,5.40
2022-12-27T20:00:26.964Z,5.78
2022-12-27T20:02:30.452Z,5.88
2022-12-27T20:04:33.956Z,5.22
2022-12-27T20:06:37.244Z,5.97
2022-12-27T20:08:44.419Z,5.22
2022-12-27T20:10:49.734Z,5.53
2022-12-27T20:12:53.050Z,5.20
2022-12-27T20:14:56.440Z,5.78
2022-12-27T20:16:59.851Z,5.13
2022-12-27T20:19:03.565Z,6.25
2022-12-27T20:21:07.337Z,5.90
2022-12-27T20:23:10.956Z,6.15
2022-12-27T20:25:14.383Z,6.95
2022-12-27T20:27:23.795Z,7.07
2022-12-27T20:29:27.607Z,5.80
2022-12-27T20:31:31.197Z,6.22
2022-12-27T20:33:34.634Z,5.15
2022-12-27T20:35:38.215Z,4.65
2022-12-27T20:37:41.628Z,5.38
2022-12-27T20:39:45.969Z,5.45
2022-12-27T20:41:49.679Z,4.90
2022-12-27T20:43:57.675Z,4.70
2022-12-27T20:46:06.106Z,4.38
2022-12-27T20:48:11.023Z,4.70
2022-12-27T20:50:14.290Z,4.50
2022-12-27T20:52:18.146Z,4.55
2022-12-27T20:54:21.487Z,4.95
2022-12-27T20:56:25.770Z,4.82
2022-12-27T20:58:29.184Z,5.40
2022-12-27T21:00:34.007Z,5.47
2022-12-27T21:02:39.135Z,5.35
2022-12-27T21:04:42.672Z,6.25
2022-12-27T21:06:46.035Z,6.85
2022-12-27T21:08:56.347Z,8.60
2022-12-27T21:11:06.936Z,10.15
2022-12-27T21:13:10.277Z,18.67
2022-12-27T21:15:13.739Z,19.17
2022-12-27T21:17:18.739Z,22.20
2022-12-27T21:19:22.130Z,16.30
2022-12-27T21:21:28.618Z,13.48
2022-12-27T21:23:33.498Z,10.10
2022-12-27T21:25:38.447Z,12.98
2022-12-27T21:27:41.822Z,13.88
2022-12-27T21:29:45.263Z,14.68
2022-12-27T21:31:48.535Z,14.10
2022-12-27T21:33:53.656Z,12.82
2022-12-27T21:35:58.581Z,12.20
2022-12-27T21:38:02.078Z,11.88
2022-12-27T21:40:06.290Z,12.05
2022-12-27T21:42:10.923Z,12.40
2022-12-27T21:44:14.477Z,11.98
2022-12-27T21:46:19.805Z,9.70
2022-12-27T21:48:23.438Z,8.10
2022-12-27T21:50:33.849Z,8.77
2022-12-27T21:52:40.423Z,10.27
2022-12-27T21:54:43.772Z,11.65
2022-12-27T21:56:47.184Z,13.68
2022-12-27T21:58:50.784Z,12.77
2022-12-27T22:00:57.966Z,11.68
2022-12-27T22:03:01.453Z,8.20
2022-12-27T22:05:05.259Z,6.60
2022-12-27T22:07:10.322Z,5.90
2022-12-27T22:09:13.571Z,4.97
2022-12-27T22:11:18.294Z,4.88
2022-12-27T22:13:21.545Z,4.45
2022-12-27T22:15:25.087Z,4.25
2022-12-27T22:17:29.259Z,4.28
2022-12-27T22:19:32.555Z,4.13
2022-12-27T22:21:36.971Z,3.90
2022-12-27T22:23:43.738Z,4.15
2022-12-27T22:25:47.172Z,3.65
2022-12-27T22:27:50.524Z,3.92
2022-12-27T22:29:53.849Z,4.03
2022-12-27T22:31:57.201Z,4.60
2022-12-27T22:34:00.507Z,4.40
2022-12-27T22:36:05.394Z,5.25
2022-12-27T22:38:08.791Z,5.10
2022-12-27T22:40:26.476Z,6.10
2022-12-27T22:42:38.026Z,5.13
2022-12-27T22:44:41.309Z,8.52
2022-12-27T22:47:24.593Z,7.80
2022-12-27T22:49:08.783Z,4.55
2022-12-27T22:51:16.171Z,4.07
2022-12-27T22:53:19.405Z,5.15
2022-12-27T22:55:24.179Z,7.15
2022-12-27T22:57:27.679Z,6.35
2022-12-27T22:59:30.991Z,5.20
2022-12-27T23:01:35.026Z,5.43
2022-12-27T23:03:38.501Z,6.18
2022-12-27T23:05:41.953Z,4.95
2022-12-27T23:08:06.091Z,5.13
2022-12-27T23:10:09.612Z,5.90
2022-12-27T23:12:14.921Z,5.30
2022-12-27T23:14:18.622Z,6.65
2022-12-27T23:16:22.054Z,5.72
2022-12-27T23:18:25.454Z,5.15
2022-12-27T23:20:28.752Z,5.20
2022-12-27T23:22:32.077Z,4.63
2022-12-27T23:24:35.437Z,4.75
2022-12-27T23:26:39.432Z,5.65
2022-12-27T23:28:46.191Z,7.15
2022-12-27T23:30:50.218Z,7.70
2022-12-27T23:32:53.398Z,6.95
2022-12-27T23:34:56.774Z,6.22
2022-12-27T23:37:01.148Z,6.30
2022-12-27T23:39:04.594Z,6.47
2022-12-27T23:41:09.373Z,6.22
2022-12-27T23:43:50.514Z,6.30
2022-12-27T23:45:38.228Z,6.20
2022-12-27T23:47:41.602Z,7.15
2022-12-27T23:49:45.084Z,4.82
2022-12-27T23:51:48.382Z,6.05
2022-12-27T23:53:51.975Z,5.35
2022-12-27T23:55:58.361Z,4.70
2022-12-27T23:58:01.665Z,6.35
